createdAt,value
2022-10-06T00:01:39.108Z,17.98
2022-10-06T00:04:07.177Z,18.12
2022-10-06T00:06:36.222Z,18.12
2022-10-06T00:09:04.642Z,18.11
2022-10-06T00:11:36.432Z,18.03
2022-10-06T00:14:06.231Z,18.04
2022-10-06T00:16:34.254Z,18.06
2022-10-06T00:19:02.635Z,18.10
2022-10-06T00:21:30.650Z,18.13
2022-10-06T00:23:58.689Z,18.14
2022-10-06T00:26:27.198Z,18.16
2022-10-06T00:28:56.594Z,18.20
2022-10-06T00:31:24.690Z,18.16
2022-10-06T00:33:52.875Z,18.14
2022-10-06T00:36:21.394Z,17.99
2022-10-06T00:38:50.967Z,18.21
2022-10-06T00:41:19.171Z,18.21
2022-10-06T00:43:49.559Z,18.20
2022-10-06T00:46:22.233Z,18.17
2022-10-06T00:48:54.052Z,18.14
2022-10-06T00:51:25.513Z,18.14
2022-10-06T00:53:53.571Z,18.08
2022-10-06T00:56:21.601Z,18.09
2022-10-06T00:58:54.699Z,18.16
2022-10-06T01:01:24.312Z,18.09
2022-10-06T01:03:58.530Z,18.06
2022-10-06T01:06:26.701Z,18.05
2022-10-06T01:08:55.847Z,18.16
2022-10-06T01:11:23.846Z,18.12
2022-10-06T01:13:51.886Z,18.12
2022-10-06T01:16:22.638Z,18.13
2022-10-06T01:18:52.074Z,18.17
2022-10-06T01:21:24.559Z,18.12
2022-10-06T01:23:54.031Z,18.20
2022-10-06T01:26:25.188Z,18.21
2022-10-06T01:28:55.048Z,18.21
2022-10-06T01:31:23.074Z,18.09
2022-10-06T01:34:02.740Z,18.10
2022-10-06T01:36:31.100Z,18.10
2022-10-06T01:39:00.493Z,18.09
2022-10-06T01:41:30.472Z,18.06
2022-10-06T01:43:59.260Z,18.05
2022-10-06T01:46:30.215Z,18.07
2022-10-06T01:48:58.407Z,18.11
2022-10-06T01:51:26.626Z,18.18
2022-10-06T01:53:55.781Z,18.25
2022-10-06T01:56:25.297Z,18.29
2022-10-06T01:58:54.380Z,18.40
2022-10-06T02:01:22.516Z,18.45
2022-10-06T02:03:50.533Z,18.49
2022-10-06T02:06:18.670Z,18.40
2022-10-06T02:08:47.321Z,18.51
2022-10-06T02:11:15.390Z,18.44
2022-10-06T02:13:45.675Z,18.48
2022-10-06T02:16:14.169Z,18.43
2022-10-06T02:18:44.087Z,18.40
2022-10-06T02:21:17.721Z,18.34
2022-10-06T02:23:45.810Z,18.34
2022-10-06T02:26:16.402Z,18.33
2022-10-06T02:28:46.860Z,18.24
2022-10-06T02:31:19.076Z,18.21
2022-10-06T02:33:49.779Z,18.21
2022-10-06T02:36:19.855Z,18.30
2022-10-06T02:38:49.445Z,18.23
2022-10-06T02:41:17.929Z,18.29
2022-10-06T02:43:48.229Z,18.34
2022-10-06T02:46:20.252Z,18.37
2022-10-06T02:48:51.902Z,18.43
2022-10-06T02:51:21.112Z,18.48
2022-10-06T02:53:49.855Z,18.49
2022-10-06T02:56:20.622Z,18.46
2022-10-06T02:58:50.685Z,18.49
2022-10-06T03:01:29.326Z,18.53
2022-10-06T03:04:05.488Z,18.50
2022-10-06T03:06:33.539Z,18.55
2022-10-06T03:09:28.671Z,18.55
2022-10-06T03:11:57.529Z,18.59
2022-10-06T03:14:36.342Z,18.53
2022-10-06T03:17:05.345Z,18.55
2022-10-06T03:19:35.446Z,18.50
2022-10-06T03:22:03.569Z,18.57
2022-10-06T03:24:41.867Z,18.61
2022-10-06T03:27:09.973Z,18.47
2022-10-06T03:29:39.354Z,18.60
2022-10-06T03:32:07.538Z,18.58
2022-10-06T03:34:37.761Z,18.66
2022-10-06T03:37:11.781Z,18.59
2022-10-06T03:39:40.174Z,18.62
2022-10-06T03:42:09.196Z,18.59
2022-10-06T03:44:37.234Z,18.65
2022-10-06T03:47:14.707Z,18.65
2022-10-06T03:49:45.601Z,18.63
2022-10-06T03:52:15.484Z,18.59
2022-10-06T03:54:43.555Z,18.60
2022-10-06T03:57:12.063Z,18.66
2022-10-06T03:59:42.809Z,18.66
2022-10-06T04:02:14.394Z,18.69
2022-10-06T04:04:42.754Z,18.69
2022-10-06T04:07:12.351Z,18.70
2022-10-06T04:09:41.124Z,18.66
2022-10-06T04:12:10.993Z,18.68
2022-10-06T04:14:40.698Z,18.64
2022-10-06T04:17:09.577Z,18.67
2022-10-06T04:19:41.973Z,18.66
2022-10-06T04:22:10.050Z,18.70
2022-10-06T04:24:38.680Z,18.60
2022-10-06T04:27:24.577Z,18.72
2022-10-06T04:30:16.927Z,18.62
2022-10-06T04:32:45.719Z,18.52
2022-10-06T04:35:16.171Z,18.61
2022-10-06T04:37:47.063Z,18.68
2022-10-06T04:40:16.766Z,18.52
2022-10-06T04:42:45.577Z,18.58
2022-10-06T04:45:16.224Z,18.66
2022-10-06T04:47:45.255Z,18.76
2022-10-06T04:50:17.395Z,18.73
2022-10-06T04:53:06.159Z,18.71
2022-10-06T04:55:36.814Z,18.80
2022-10-06T04:58:05.459Z,18.82
2022-10-06T05:00:33.648Z,18.82
2022-10-06T05:03:02.014Z,18.83
2022-10-06T05:05:33.994Z,18.83
2022-10-06T05:08:02.354Z,18.92
2022-10-06T05:10:30.553Z,18.92
2022-10-06T05:12:59.354Z,18.95
2022-10-06T05:15:29.188Z,18.93
2022-10-06T05:17:57.519Z,18.93
2022-10-06T05:20:25.619Z,18.86
2022-10-06T05:23:00.570Z,18.95
2022-10-06T05:25:28.968Z,18.96
2022-10-06T05:27:56.944Z,18.95
2022-10-06T05:30:26.835Z,18.98
2022-10-06T05:32:55.070Z,18.94
2022-10-06T05:35:23.991Z,18.94
2022-10-06T05:37:52.027Z,18.95
2022-10-06T05:40:23.980Z,18.99
2022-10-06T05:42:52.025Z,19.01
2022-10-06T05:45:22.903Z,18.97
2022-10-06T05:47:51.117Z,19.00
2022-10-06T05:50:20.694Z,18.99
2022-10-06T05:52:49.198Z,18.91
2022-10-06T05:55:17.252Z,18.95
2022-10-06T05:58:49.581Z,18.95
2022-10-06T06:01:20.693Z,18.88
2022-10-06T06:03:50.684Z,18.90
2022-10-06T06:06:43.223Z,18.92
2022-10-06T06:09:31.045Z,18.87
2022-10-06T06:12:05.005Z,18.77
2022-10-06T06:15:08.759Z,18.64
2022-10-06T06:17:48.044Z,18.53
2022-10-06T06:20:55.643Z,18.46
2022-10-06T06:23:23.790Z,18.35
2022-10-06T06:26:02.261Z,18.34
2022-10-06T06:28:32.053Z,18.30
2022-10-06T06:31:03.677Z,18.28
2022-10-06T06:33:33.605Z,18.28
2022-10-06T06:36:05.708Z,18.29
2022-10-06T06:38:33.802Z,18.34
2022-10-06T06:41:01.966Z,18.34
2022-10-06T06:43:30.472Z,18.38
2022-10-06T06:46:25.393Z,18.41
2022-10-06T06:49:26.735Z,18.29
2022-10-06T06:51:59.190Z,18.47
2022-10-06T06:54:31.022Z,18.30
2022-10-06T06:57:04.648Z,18.00
2022-10-06T06:59:34.109Z,17.83
2022-10-06T07:02:03.431Z,17.66
2022-10-06T07:04:37.464Z,17.54
2022-10-06T07:07:07.971Z,17.58
2022-10-06T07:09:39.216Z,17.62
2022-10-06T07:12:12.572Z,17.70
2022-10-06T07:15:00.665Z,17.72
2022-10-06T07:17:49.029Z,17.75
2022-10-06T07:20:37.247Z,17.78
2022-10-06T07:23:23.117Z,17.83
2022-10-06T07:25:54.175Z,17.85
2022-10-06T07:28:22.826Z,17.93
2022-10-06T07:30:52.757Z,18.00
2022-10-06T07:33:22.816Z,18.09
2022-10-06T07:35:55.133Z,18.19
2022-10-06T07:38:26.195Z,18.37
2022-10-06T07:41:14.926Z,18.51
2022-10-06T07:43:49.345Z,18.58
2022-10-06T07:46:19.926Z,18.63
2022-10-06T07:49:05.150Z,18.61
2022-10-06T07:51:34.578Z,18.47
2022-10-06T07:54:04.204Z,18.28
2022-10-06T07:56:55.174Z,18.43
2022-10-06T07:59:32.661Z,18.50
2022-10-06T08:02:00.763Z,18.46
2022-10-06T08:04:28.926Z,18.57
2022-10-06T08:06:59.779Z,18.59
2022-10-06T08:09:30.711Z,18.66
2022-10-06T08:12:25.069Z,18.70
2022-10-06T08:14:53.454Z,18.59
2022-10-06T08:17:22.244Z,18.78
2022-10-06T08:19:50.841Z,18.80
2022-10-06T08:22:29.379Z,18.65
2022-10-06T08:25:05.762Z,18.78
2022-10-06T08:27:35.078Z,18.76
2022-10-06T08:30:12.430Z,18.77
2022-10-06T08:32:42.830Z,18.82
2022-10-06T08:35:21.565Z,18.87
2022-10-06T08:37:51.455Z,18.90
2022-10-06T08:40:21.532Z,18.92
2022-10-06T08:42:52.322Z,18.93
2022-10-06T08:45:35.003Z,19.08
2022-10-06T08:48:07.386Z,19.16
2022-10-06T08:50:38.939Z,19.21
2022-10-06T08:53:15.643Z,19.31
2022-10-06T08:55:51.529Z,19.54
2022-10-06T08:58:34.813Z,19.68
2022-10-06T09:01:14.392Z,19.86
2022-10-06T09:03:47.803Z,19.92
2022-10-06T09:06:26.357Z,20.02
2022-10-06T09:09:00.649Z,20.20
2022-10-06T09:11:37.688Z,20.26
2022-10-06T09:14:07.682Z,20.26
2022-10-06T09:16:39.621Z,20.40
2022-10-06T09:19:12.542Z,20.45
2022-10-06T09:21:43.413Z,20.49
2022-10-06T09:24:17.690Z,20.54
2022-10-06T09:26:48.094Z,20.60
2022-10-06T09:29:16.653Z,20.80
2022-10-06T09:31:47.749Z,20.79
2022-10-06T09:34:25.370Z,21.03
2022-10-06T09:37:02.072Z,21.10
2022-10-06T09:39:36.788Z,21.11
2022-10-06T09:42:08.001Z,21.01
2022-10-06T09:44:44.627Z,21.08
2022-10-06T09:47:52.239Z,21.09
2022-10-06T09:50:22.808Z,21.01
2022-10-06T09:53:16.369Z,21.19
2022-10-06T09:55:53.774Z,21.36
2022-10-06T09:58:31.667Z,21.38
2022-10-06T10:01:03.770Z,21.64
2022-10-06T10:04:15.616Z,21.86
2022-10-06T10:06:40.688Z,21.92
2022-10-06T10:09:22.421Z,22.10
2022-10-06T10:12:28.316Z,22.14
2022-10-06T10:14:59.585Z,22.30
2022-10-06T10:17:58.906Z,22.40
2022-10-06T10:20:41.118Z,22.59
2022-10-06T10:23:27.271Z,22.84
2022-10-06T10:26:09.720Z,22.92
2022-10-06T10:29:15.890Z,22.90
2022-10-06T10:31:55.790Z,22.92
2022-10-06T10:35:00.697Z,22.91
2022-10-06T10:37:36.930Z,22.87
2022-10-06T10:40:13.122Z,22.65
2022-10-06T10:42:44.951Z,22.66
2022-10-06T10:45:18.904Z,22.41
2022-10-06T10:47:51.017Z,22.02
2022-10-06T10:50:26.411Z,21.94
2022-10-06T10:52:57.407Z,21.87
2022-10-06T10:55:29.326Z,21.76
2022-10-06T10:58:00.562Z,21.79
2022-10-06T11:00:33.037Z,21.63
2022-10-06T11:03:02.461Z,21.74
2022-10-06T11:05:40.184Z,21.77
2022-10-06T11:08:12.119Z,21.98
2022-10-06T11:10:46.592Z,22.19
2022-10-06T11:13:18.911Z,22.29
2022-10-06T11:15:54.632Z,22.44
2022-10-06T11:18:40.880Z,22.39
2022-10-06T11:21:14.967Z,22.39
2022-10-06T11:23:53.535Z,22.31
2022-10-06T11:26:35.827Z,22.20
2022-10-06T11:29:07.900Z,22.15
2022-10-06T11:31:40.659Z,22.08
2022-10-06T11:34:17.660Z,22.23
2022-10-06T11:36:48.042Z,22.33
2022-10-06T11:39:28.944Z,22.50
2022-10-06T11:41:59.461Z,22.72
2022-10-06T11:44:32.438Z,22.92
2022-10-06T11:47:09.381Z,22.92
2022-10-06T11:49:54.101Z,23.12
2022-10-06T11:52:55.400Z,23.20
2022-10-06T11:55:27.412Z,23.23
2022-10-06T11:58:41.411Z,23.33
2022-10-06T12:01:10.290Z,23.61
2022-10-06T12:07:06.572Z,23.93
2022-10-06T12:09:52.702Z,23.97
2022-10-06T12:13:06.898Z,23.86
2022-10-06T12:21:37.258Z,24.18
2022-10-06T12:24:18.899Z,24.19
2022-10-06T12:26:54.106Z,24.12
2022-10-06T12:29:42.957Z,23.87
2022-10-06T12:32:34.855Z,23.87
2022-10-06T12:35:07.513Z,23.93
2022-10-06T12:37:54.479Z,24.15
2022-10-06T12:41:02.358Z,24.15
2022-10-06T12:43:38.202Z,24.20
2022-10-06T12:46:16.547Z,24.18
2022-10-06T12:48:53.637Z,23.93
2022-10-06T12:51:30.487Z,23.79
2022-10-06T12:54:04.447Z,23.71
2022-10-06T12:56:39.112Z,23.84
2022-10-06T12:59:21.553Z,23.56
2022-10-06T13:01:51.355Z,23.35
2022-10-06T13:04:37.810Z,23.12
2022-10-06T13:07:11.225Z,23.03
2022-10-06T13:09:41.853Z,22.74
2022-10-06T13:12:30.937Z,23.20
2022-10-06T13:15:20.485Z,23.32
2022-10-06T13:18:07.259Z,23.52
2022-10-06T13:20:37.907Z,23.50
2022-10-06T13:23:25.984Z,23.48
2022-10-06T13:25:58.446Z,23.41
2022-10-06T13:32:22.876Z,23.76
2022-10-06T13:34:51.070Z,23.96
2022-10-06T13:37:27.931Z,24.27
2022-10-06T13:39:56.865Z,24.10
2022-10-06T13:42:25.615Z,23.98
2022-10-06T13:45:00.412Z,23.90
2022-10-06T13:47:48.340Z,23.71
2022-10-06T13:50:21.197Z,23.77
2022-10-06T13:52:50.837Z,24.00
2022-10-06T13:55:33.905Z,24.02
2022-10-06T13:58:11.110Z,24.26
2022-10-06T14:01:04.772Z,24.07
2022-10-06T14:06:07.959Z,24.68
2022-10-06T14:08:36.718Z,24.73
2022-10-06T14:11:06.250Z,24.84
2022-10-06T14:13:46.917Z,24.80
2022-10-06T14:16:20.819Z,25.09
2022-10-06T14:21:34.029Z,24.68
2022-10-06T14:24:06.122Z,24.78
2022-10-06T14:26:39.923Z,24.67
2022-10-06T14:29:08.724Z,24.50
2022-10-06T14:31:36.932Z,24.23
2022-10-06T14:34:14.508Z,24.02
2022-10-06T14:36:47.389Z,23.85
2022-10-06T14:39:19.535Z,23.58
2022-10-06T14:41:47.807Z,23.35
2022-10-06T14:44:21.589Z,23.55
2022-10-06T14:46:50.178Z,23.43
2022-10-06T14:49:27.715Z,23.41
2022-10-06T14:51:56.949Z,23.41
2022-10-06T14:54:26.949Z,23.31
2022-10-06T14:56:56.292Z,23.33
2022-10-06T14:59:28.645Z,23.26
2022-10-06T15:01:59.756Z,23.35
2022-10-06T15:04:29.389Z,23.36
2022-10-06T15:07:15.108Z,23.32
2022-10-06T15:09:44.073Z,23.17
2022-10-06T15:12:12.102Z,23.06
2022-10-06T15:14:40.237Z,22.96
2022-10-06T15:17:08.327Z,23.01
2022-10-06T15:19:38.021Z,23.01
2022-10-06T15:22:07.336Z,23.09
2022-10-06T15:24:35.513Z,23.10
2022-10-06T15:27:24.718Z,23.17
2022-10-06T15:29:57.448Z,23.50
2022-10-06T15:32:37.045Z,23.38
2022-10-06T15:35:22.615Z,23.21
2022-10-06T15:37:50.916Z,23.22
2022-10-06T15:40:22.387Z,23.79
2022-10-06T15:42:51.222Z,23.68
2022-10-06T15:45:19.425Z,23.98
2022-10-06T15:47:48.932Z,24.21
2022-10-06T15:50:19.142Z,24.41
2022-10-06T15:52:58.768Z,24.43
2022-10-06T15:55:26.877Z,24.47
2022-10-06T15:57:55.199Z,24.72
2022-10-06T16:00:23.239Z,24.71
2022-10-06T16:02:52.767Z,25.05
2022-10-06T16:05:46.182Z,25.03
2022-10-06T16:08:14.343Z,24.48
2022-10-06T16:10:42.552Z,24.14
2022-10-06T16:13:10.651Z,24.17
2022-10-06T16:15:38.703Z,24.24
2022-10-06T16:18:07.024Z,24.11
2022-10-06T16:20:36.487Z,24.18
2022-10-06T16:23:04.525Z,23.90
2022-10-06T16:25:32.618Z,23.55
2022-10-06T16:28:01.011Z,23.03
2022-10-06T16:30:31.168Z,23.07
2022-10-06T16:33:01.528Z,23.02
2022-10-06T16:35:30.136Z,23.10
2022-10-06T16:38:03.432Z,22.96
2022-10-06T16:40:31.655Z,22.84
2022-10-06T16:43:04.835Z,22.86
2022-10-06T16:45:48.658Z,23.01
2022-10-06T16:48:18.184Z,23.28
2022-10-06T16:51:00.246Z,23.53
2022-10-06T16:53:37.668Z,23.57
2022-10-06T16:56:06.102Z,23.61
2022-10-06T16:58:41.991Z,23.16
2022-10-06T17:01:10.339Z,22.79
2022-10-06T17:03:38.839Z,22.54
2022-10-06T17:06:08.999Z,22.29
2022-10-06T17:08:39.681Z,22.05
2022-10-06T17:11:16.883Z,21.95
2022-10-06T17:13:47.410Z,21.81
2022-10-06T17:16:18.572Z,21.73
2022-10-06T17:18:52.864Z,21.64
2022-10-06T17:21:44.098Z,21.50
2022-10-06T17:24:13.303Z,21.36
2022-10-06T17:26:42.457Z,21.27
2022-10-06T17:29:13.846Z,21.20
2022-10-06T17:31:43.342Z,21.12
2022-10-06T17:34:12.547Z,21.06
2022-10-06T17:36:41.302Z,21.04
2022-10-06T17:39:13.953Z,20.96
2022-10-06T17:41:42.711Z,20.98
2022-10-06T17:44:13.490Z,20.95
2022-10-06T17:46:42.750Z,20.94
2022-10-06T17:49:21.005Z,20.96
2022-10-06T17:52:01.581Z,20.95
2022-10-06T17:54:53.006Z,20.89
2022-10-06T17:57:21.173Z,20.85
2022-10-06T17:59:49.206Z,20.77
2022-10-06T18:02:17.289Z,20.74
2022-10-06T18:04:47.491Z,20.69
2022-10-06T18:07:19.340Z,20.64
2022-10-06T18:10:09.923Z,20.66
2022-10-06T18:12:50.801Z,20.65
2022-10-06T18:15:22.099Z,20.60
2022-10-06T18:17:53.403Z,20.65
2022-10-06T18:20:23.477Z,20.49
2022-10-06T18:22:51.588Z,20.57
2022-10-06T18:25:26.908Z,20.50
2022-10-06T18:27:55.290Z,20.43
2022-10-06T18:30:34.243Z,20.36
2022-10-06T18:37:25.810Z,20.21
2022-10-06T18:48:05.051Z,20.13
2022-10-06T18:51:14.307Z,20.17
2022-10-06T18:53:56.047Z,20.16
2022-10-06T18:56:33.632Z,20.09
2022-10-06T19:03:34.616Z,20.20
2022-10-06T19:06:02.718Z,20.20
2022-10-06T19:08:30.906Z,20.13
2022-10-06T19:11:29.910Z,20.22
2022-10-06T19:14:12.805Z,20.13
2022-10-06T19:16:41.147Z,20.21
2022-10-06T19:19:11.922Z,20.17
2022-10-06T19:21:50.246Z,20.17
2022-10-06T19:24:24.428Z,20.16
2022-10-06T19:26:57.531Z,20.15
2022-10-06T19:29:50.704Z,20.23
2022-10-06T19:32:25.705Z,20.22
2022-10-06T19:34:59.035Z,20.25
2022-10-06T19:37:28.429Z,20.19
2022-10-06T19:39:56.447Z,20.16
2022-10-06T19:45:47.877Z,20.11
2022-10-06T19:48:20.373Z,19.99
2022-10-06T19:50:52.214Z,20.11
2022-10-06T19:53:27.702Z,20.09
2022-10-06T19:56:02.126Z,20.13
2022-10-06T19:58:34.016Z,20.05
2022-10-06T20:01:07.627Z,20.06
2022-10-06T20:03:41.538Z,20.04
2022-10-06T20:06:12.444Z,20.07
2022-10-06T20:08:46.898Z,20.05
2022-10-06T20:11:29.457Z,20.05
2022-10-06T20:13:57.552Z,19.95
2022-10-06T20:16:25.801Z,20.01
2022-10-06T20:18:57.402Z,20.04
2022-10-06T20:21:31.238Z,20.06
2022-10-06T20:24:01.411Z,20.06
2022-10-06T20:26:35.268Z,20.07
2022-10-06T20:29:05.086Z,20.12
2022-10-06T20:31:44.883Z,20.14
2022-10-06T20:34:23.526Z,20.18
2022-10-06T20:36:55.944Z,20.14
2022-10-06T20:39:43.385Z,20.13
2022-10-06T20:42:15.140Z,20.10
2022-10-06T20:44:46.511Z,19.98
2022-10-06T20:47:16.482Z,19.96
2022-10-06T20:49:44.702Z,20.06
2022-10-06T20:53:02.918Z,20.03
2022-10-06T20:55:38.180Z,19.94
2022-10-06T21:01:22.076Z,19.81
2022-10-06T21:03:51.360Z,19.78
2022-10-06T21:06:20.717Z,19.74
2022-10-06T21:09:19.055Z,19.75
2022-10-06T21:11:47.611Z,19.60
2022-10-06T21:14:18.940Z,19.72
2022-10-06T21:16:49.884Z,19.71
2022-10-06T21:19:19.852Z,19.51
2022-10-06T21:21:52.390Z,19.64
2022-10-06T21:25:23.857Z,19.67
2022-10-06T21:27:56.631Z,19.45
2022-10-06T21:30:25.879Z,19.69
2022-10-06T21:32:53.917Z,19.55
2022-10-06T21:35:22.181Z,19.75
2022-10-06T21:37:54.130Z,19.80
2022-10-06T21:40:53.289Z,19.86
2022-10-06T21:43:28.982Z,19.83
2022-10-06T21:46:23.938Z,19.72
2022-10-06T21:48:53.422Z,19.84
2022-10-06T21:51:23.094Z,19.84
2022-10-06T21:53:59.060Z,19.88
2022-10-06T21:56:27.813Z,19.87
2022-10-06T21:59:00.962Z,19.75
2022-10-06T22:01:29.901Z,19.83
2022-10-06T22:04:21.894Z,19.76
2022-10-06T22:06:53.520Z,19.72
2022-10-06T22:09:23.223Z,19.66
2022-10-06T22:11:51.459Z,19.67
2022-10-06T22:14:22.423Z,19.58
2022-10-06T22:16:50.611Z,19.66
2022-10-06T22:19:21.744Z,19.54
2022-10-06T22:21:50.011Z,19.73
2022-10-06T22:24:21.751Z,19.75
2022-10-06T22:26:50.046Z,19.81
2022-10-06T22:29:28.666Z,19.83
2022-10-06T22:32:03.493Z,19.88
2022-10-06T22:34:39.042Z,19.87
2022-10-06T22:37:16.015Z,19.87
2022-10-06T22:39:44.306Z,19.84
2022-10-06T22:42:12.443Z,19.68
2022-10-06T22:44:43.287Z,19.84
2022-10-06T22:47:12.020Z,19.72
2022-10-06T22:49:40.039Z,19.80
2022-10-06T22:52:09.691Z,19.77
2022-10-06T22:54:38.271Z,19.75
2022-10-06T22:57:07.114Z,19.69
2022-10-06T22:59:35.222Z,19.55
2022-10-06T23:02:32.907Z,19.72
2022-10-06T23:05:03.400Z,19.52
2022-10-06T23:07:34.916Z,19.68
2022-10-06T23:10:02.938Z,19.70
2022-10-06T23:12:32.186Z,19.69
2022-10-06T23:15:02.116Z,19.69
2022-10-06T23:17:31.562Z,19.74
2022-10-06T23:20:01.213Z,19.76
2022-10-06T23:22:31.990Z,19.75
2022-10-06T23:25:00.041Z,19.77
2022-10-06T23:27:28.118Z,19.62
2022-10-06T23:29:56.176Z,19.80
2022-10-06T23:32:25.057Z,19.73
2022-10-06T23:34:54.201Z,19.66
2022-10-06T23:37:25.471Z,19.60
2022-10-06T23:39:58.730Z,19.52
2022-10-06T23:42:29.210Z,19.68
2022-10-06T23:44:57.280Z,19.70
2022-10-06T23:47:25.365Z,19.59
2022-10-06T23:49:54.285Z,19.69
2022-10-06T23:52:22.321Z,19.64
2022-10-06T23:54:50.269Z,19.64
2022-10-06T23:57:19.644Z,19.58
2022-10-06T23:59:47.592Z,19.52
